createdAt,value
2023-03-14T00:00:17.061Z,11.37
2023-03-14T00:01:17.056Z,11.36
2023-03-14T00:02:17.038Z,11.42
2023-03-14T00:03:17.043Z,11.35
2023-03-14T00:04:17.006Z,11.43
2023-03-14T00:05:16.997Z,11.35
2023-03-14T00:06:17.003Z,11.44
2023-03-14T00:07:17.002Z,11.35
2023-03-14T00:08:16.951Z,11.46
2023-03-14T00:09:16.985Z,11.43
2023-03-14T00:10:16.938Z,11.51
2023-03-14T00:11:17.008Z,11.39
2023-03-14T00:12:16.909Z,11.43
2023-03-14T00:13:16.937Z,11.47
2023-03-14T00:14:16.896Z,11.64
2023-03-14T00:15:16.877Z,11.58
2023-03-14T00:16:16.948Z,11.55
2023-03-14T00:17:16.880Z,11.47
2023-03-14T00:18:16.892Z,11.40
2023-03-14T00:19:16.856Z,11.36
2023-03-14T00:20:16.830Z,11.33
2023-03-14T00:21:16.850Z,11.39
2023-03-14T00:22:16.818Z,11.35
2023-03-14T00:23:16.797Z,11.35
2023-03-14T00:24:16.834Z,11.44
2023-03-14T00:25:16.769Z,11.39
2023-03-14T00:26:16.764Z,11.40
2023-03-14T00:27:16.996Z,11.54
2023-03-14T00:28:16.793Z,11.46
2023-03-14T00:29:16.756Z,11.43
2023-03-14T00:30:16.717Z,11.52
2023-03-14T00:31:16.841Z,11.49
2023-03-14T00:32:16.701Z,11.44
2023-03-14T00:33:16.695Z,11.40
2023-03-14T00:34:16.678Z,11.37
2023-03-14T00:35:16.672Z,11.40
2023-03-14T00:36:16.641Z,11.35
2023-03-14T00:37:16.643Z,11.40
2023-03-14T00:38:16.622Z,11.37
2023-03-14T00:39:16.615Z,11.25
2023-03-14T00:40:16.646Z,11.40
2023-03-14T00:41:16.607Z,11.24
2023-03-14T00:42:16.576Z,11.37
2023-03-14T00:43:16.631Z,11.33
2023-03-14T00:44:16.569Z,11.33
2023-03-14T00:45:16.542Z,11.39
2023-03-14T00:46:16.603Z,11.40
2023-03-14T00:47:16.569Z,11.36
2023-03-14T00:48:16.505Z,11.29
2023-03-14T00:49:16.502Z,11.27
2023-03-14T00:50:16.490Z,11.40
2023-03-14T00:51:16.617Z,11.29
2023-03-14T00:52:16.516Z,11.44
2023-03-14T00:53:16.447Z,11.47
2023-03-14T00:54:16.476Z,11.54
2023-03-14T00:55:16.481Z,11.58
2023-03-14T00:56:16.429Z,11.55
2023-03-14T00:57:16.475Z,11.58
2023-03-14T00:58:16.412Z,11.60
2023-03-14T00:59:16.407Z,11.69
2023-03-14T01:00:16.383Z,11.75
2023-03-14T01:01:16.394Z,11.72
2023-03-14T01:02:16.385Z,11.64
2023-03-14T01:03:16.501Z,11.61
2023-03-14T01:04:16.331Z,11.55
2023-03-14T01:05:16.336Z,11.49
2023-03-14T01:06:16.338Z,11.51
2023-03-14T01:07:16.347Z,11.44
2023-03-14T01:08:16.306Z,11.43
2023-03-14T01:09:16.280Z,11.52
2023-03-14T01:10:16.349Z,11.46
2023-03-14T01:11:16.265Z,11.46
2023-03-14T01:12:16.242Z,11.40
2023-03-14T01:13:16.288Z,11.40
2023-03-14T01:14:16.251Z,11.40
2023-03-14T01:15:16.231Z,11.37
2023-03-14T01:16:16.286Z,11.37
2023-03-14T01:17:16.188Z,11.32
2023-03-14T01:18:16.221Z,11.43
2023-03-14T01:19:16.177Z,11.28
2023-03-14T01:20:16.164Z,11.37
2023-03-14T01:21:16.155Z,11.35
2023-03-14T01:22:16.182Z,11.29
2023-03-14T01:23:16.122Z,11.36
2023-03-14T01:24:16.124Z,11.39
2023-03-14T01:25:16.105Z,11.46
2023-03-14T01:26:16.095Z,11.42
2023-03-14T01:27:16.133Z,11.40
2023-03-14T01:28:16.077Z,11.33
2023-03-14T01:29:16.061Z,11.32
2023-03-14T01:30:16.053Z,11.35
2023-03-14T01:31:16.126Z,11.36
2023-03-14T01:32:16.048Z,11.39
2023-03-14T01:33:16.022Z,11.32
2023-03-14T01:34:16.009Z,11.33
2023-03-14T01:35:15.991Z,11.39
2023-03-14T01:36:16.026Z,11.40
2023-03-14T01:37:15.971Z,11.44
2023-03-14T01:38:15.968Z,11.37
2023-03-14T01:39:15.943Z,11.35
2023-03-14T01:40:15.937Z,11.37
2023-03-14T01:41:15.992Z,11.28
2023-03-14T01:42:15.947Z,11.33
2023-03-14T01:43:15.930Z,11.44
2023-03-14T01:44:15.890Z,11.29
2023-03-14T01:45:15.893Z,11.25
2023-03-14T01:46:15.915Z,11.24
2023-03-14T01:47:15.971Z,11.24
2023-03-14T01:48:15.861Z,11.09
2023-03-14T01:49:15.858Z,11.10
2023-03-14T01:50:22.853Z,11.07
2023-03-14T01:51:15.808Z,11.04
2023-03-14T01:52:15.820Z,11.07
2023-03-14T01:53:15.784Z,11.00
2023-03-14T01:54:15.772Z,11.07
2023-03-14T01:55:15.766Z,11.11
2023-03-14T01:56:15.777Z,11.15
2023-03-14T01:57:15.731Z,11.11
2023-03-14T01:58:15.737Z,11.14
2023-03-14T01:59:15.759Z,11.14
2023-03-14T02:00:15.717Z,11.19
2023-03-14T02:01:15.740Z,11.11
2023-03-14T02:02:15.683Z,11.19
2023-03-14T02:03:15.812Z,11.22
2023-03-14T02:04:15.659Z,11.24
2023-03-14T02:05:15.678Z,11.15
2023-03-14T02:06:15.801Z,11.21
2023-03-14T02:07:15.636Z,11.10
2023-03-14T02:08:15.613Z,11.18
2023-03-14T02:09:15.618Z,11.14
2023-03-14T02:10:15.612Z,11.09
2023-03-14T02:11:15.576Z,11.04
2023-03-14T02:12:15.566Z,11.03
2023-03-14T02:13:15.668Z,11.00
2023-03-14T02:14:15.541Z,11.04
2023-03-14T02:15:15.548Z,11.02
2023-03-14T02:16:15.615Z,11.02
2023-03-14T02:17:15.521Z,11.00
2023-03-14T02:18:15.513Z,10.91
2023-03-14T02:19:15.512Z,10.92
2023-03-14T02:20:15.481Z,10.96
2023-03-14T02:21:15.496Z,11.00
2023-03-14T02:22:15.452Z,10.99
2023-03-14T02:23:15.442Z,10.97
2023-03-14T02:24:15.463Z,11.11
2023-03-14T02:25:15.453Z,11.19
2023-03-14T02:26:15.428Z,11.24
2023-03-14T02:27:15.398Z,11.21
2023-03-14T02:28:15.382Z,11.25
2023-03-14T02:29:15.366Z,11.18
2023-03-14T02:30:15.360Z,11.28
2023-03-14T02:31:15.428Z,11.19
2023-03-14T02:32:15.343Z,11.21
2023-03-14T02:33:15.338Z,11.25
2023-03-14T02:34:15.313Z,11.22
2023-03-14T02:35:15.324Z,11.21
2023-03-14T02:36:15.439Z,11.22
2023-03-14T02:37:15.279Z,11.18
2023-03-14T02:38:15.284Z,11.15
2023-03-14T02:39:15.257Z,11.21
2023-03-14T02:40:15.245Z,11.17
2023-03-14T02:41:15.312Z,11.15
2023-03-14T02:42:15.350Z,11.21
2023-03-14T02:43:15.212Z,11.28
2023-03-14T02:44:15.380Z,11.33
2023-03-14T02:45:15.184Z,11.22
2023-03-14T02:46:15.299Z,11.22
2023-03-14T02:47:15.186Z,11.22
2023-03-14T02:48:15.160Z,11.24
2023-03-14T02:49:15.152Z,11.19
2023-03-14T02:50:15.156Z,11.09
2023-03-14T02:51:15.161Z,11.04
2023-03-14T02:52:15.136Z,11.15
2023-03-14T02:53:15.110Z,11.14
2023-03-14T02:54:15.090Z,11.14
2023-03-14T02:55:15.124Z,11.09
2023-03-14T02:56:15.097Z,11.11
2023-03-14T02:57:15.068Z,11.00
2023-03-14T02:58:15.067Z,11.14
2023-03-14T02:59:15.037Z,11.11
2023-03-14T03:00:15.044Z,11.10
2023-03-14T03:01:15.123Z,11.02
2023-03-14T03:02:15.008Z,11.03
2023-03-14T03:03:15.089Z,10.99
2023-03-14T03:04:14.981Z,11.04
2023-03-14T03:05:14.990Z,11.06
2023-03-14T03:06:14.972Z,11.09
2023-03-14T03:07:15.083Z,11.07
2023-03-14T03:08:14.946Z,11.03
2023-03-14T03:09:14.923Z,11.04
2023-03-14T03:10:14.909Z,11.00
2023-03-14T03:11:14.899Z,10.91
2023-03-14T03:12:14.892Z,11.04
2023-03-14T03:13:14.940Z,10.99
2023-03-14T03:14:14.875Z,10.91
2023-03-14T03:15:14.865Z,11.00
2023-03-14T03:16:15.035Z,11.04
2023-03-14T03:17:14.831Z,11.07
2023-03-14T03:18:14.855Z,11.03
2023-03-14T03:19:14.810Z,10.94
2023-03-14T03:20:14.796Z,10.94
2023-03-14T03:21:14.816Z,10.97
2023-03-14T03:22:14.817Z,11.02
2023-03-14T03:23:14.824Z,11.02
2023-03-14T03:24:14.812Z,10.86
2023-03-14T03:25:14.845Z,10.94
2023-03-14T03:26:14.787Z,10.96
2023-03-14T03:27:14.918Z,10.79
2023-03-14T03:28:14.734Z,10.84
2023-03-14T03:29:14.728Z,10.78
2023-03-14T03:30:14.692Z,10.81
2023-03-14T03:31:14.798Z,10.68
2023-03-14T03:32:14.668Z,10.67
2023-03-14T03:33:14.664Z,10.76
2023-03-14T03:34:14.670Z,10.63
2023-03-14T03:35:14.647Z,10.73
2023-03-14T03:36:14.694Z,10.64
2023-03-14T03:37:14.626Z,10.67
2023-03-14T03:38:14.606Z,10.68
2023-03-14T03:39:14.632Z,10.60
2023-03-14T03:40:14.694Z,10.66
2023-03-14T03:41:14.595Z,10.64
2023-03-14T03:42:14.563Z,10.56
2023-03-14T03:43:14.550Z,10.48
2023-03-14T03:44:14.561Z,10.59
2023-03-14T03:45:14.529Z,10.52
2023-03-14T03:46:14.613Z,10.53
2023-03-14T03:47:14.572Z,10.53
2023-03-14T03:48:14.499Z,10.59
2023-03-14T03:49:14.497Z,10.63
2023-03-14T03:50:14.668Z,10.64
2023-03-14T03:51:14.688Z,10.59
2023-03-14T03:52:14.534Z,10.67
2023-03-14T03:53:17.889Z,10.63
2023-03-14T03:54:15.447Z,10.59
2023-03-14T03:55:14.553Z,10.76
2023-03-14T03:56:14.429Z,10.67
2023-03-14T03:57:14.404Z,10.78
2023-03-14T03:58:14.406Z,10.78
2023-03-14T03:59:14.376Z,10.79
2023-03-14T04:00:14.556Z,10.76
2023-03-14T04:01:14.399Z,10.79
2023-03-14T04:02:14.371Z,10.78
2023-03-14T04:03:14.369Z,10.68
2023-03-14T04:04:14.325Z,10.79
2023-03-14T04:05:14.493Z,10.70
2023-03-14T04:06:14.341Z,10.71
2023-03-14T04:07:14.586Z,10.78
2023-03-14T04:08:14.800Z,10.84
2023-03-14T04:09:14.434Z,10.73
2023-03-14T04:10:14.284Z,10.73
2023-03-14T04:11:15.415Z,10.88
2023-03-14T04:12:14.226Z,10.88
2023-03-14T04:13:14.457Z,10.86
2023-03-14T04:14:14.251Z,10.91
2023-03-14T04:15:14.359Z,10.82
2023-03-14T04:16:14.294Z,10.85
2023-03-14T04:17:14.197Z,10.85
2023-03-14T04:18:14.170Z,10.81
2023-03-14T04:19:14.182Z,10.94
2023-03-14T04:20:14.157Z,10.94
2023-03-14T04:21:14.134Z,10.97
2023-03-14T04:22:14.158Z,11.02
2023-03-14T04:23:14.111Z,10.99
2023-03-14T04:24:14.134Z,11.04
2023-03-14T04:25:14.410Z,11.03
2023-03-14T04:26:14.110Z,11.00
2023-03-14T04:27:14.140Z,11.00
2023-03-14T04:28:14.052Z,11.03
2023-03-14T04:29:14.073Z,10.94
2023-03-14T04:30:14.047Z,11.03
2023-03-14T04:31:14.222Z,11.10
2023-03-14T04:32:14.075Z,11.03
2023-03-14T04:33:14.013Z,11.07
2023-03-14T04:34:13.982Z,10.99
2023-03-14T04:35:13.988Z,10.94
2023-03-14T04:36:14.018Z,11.00
2023-03-14T04:37:13.972Z,10.86
2023-03-14T04:38:13.938Z,10.88
2023-03-14T04:39:13.926Z,10.82
2023-03-14T04:40:13.920Z,10.76
2023-03-14T04:41:13.921Z,10.78
2023-03-14T04:42:13.888Z,10.68
2023-03-14T04:43:13.913Z,10.70
2023-03-14T04:44:13.883Z,10.73
2023-03-14T04:45:13.858Z,10.67
2023-03-14T04:46:13.946Z,10.60
2023-03-14T04:47:13.839Z,10.56
2023-03-14T04:48:13.831Z,10.63
2023-03-14T04:49:13.849Z,10.52
2023-03-14T04:50:13.832Z,10.59
2023-03-14T04:51:13.790Z,10.59
2023-03-14T04:52:13.782Z,10.44
2023-03-14T04:53:13.771Z,10.56
2023-03-14T04:54:13.779Z,10.45
2023-03-14T04:55:13.750Z,10.44
2023-03-14T04:56:13.778Z,10.45
2023-03-14T04:57:13.723Z,10.33
2023-03-14T04:58:13.738Z,10.38
2023-03-14T04:59:13.903Z,10.44
2023-03-14T05:00:13.718Z,10.32
2023-03-14T05:01:13.683Z,10.36
2023-03-14T05:02:13.799Z,10.38
2023-03-14T05:03:13.731Z,10.25
2023-03-14T05:04:13.645Z,10.36
2023-03-14T05:05:13.638Z,10.29
2023-03-14T05:06:13.621Z,10.32
2023-03-14T05:07:14.900Z,10.27
2023-03-14T05:08:13.620Z,10.36
2023-03-14T05:09:13.597Z,10.26
2023-03-14T05:10:13.580Z,10.25
2023-03-14T05:11:13.596Z,10.26
2023-03-14T05:12:13.564Z,10.34
2023-03-14T05:13:13.539Z,10.26
2023-03-14T05:14:13.554Z,10.23
2023-03-14T05:15:13.560Z,10.26
2023-03-14T05:16:13.601Z,10.29
2023-03-14T05:17:13.497Z,10.15
2023-03-14T05:18:13.510Z,10.25
2023-03-14T05:19:13.476Z,10.18
2023-03-14T05:20:13.489Z,10.20
2023-03-14T05:21:13.451Z,10.15
2023-03-14T05:22:13.445Z,10.30
2023-03-14T05:23:13.423Z,10.27
2023-03-14T05:24:13.455Z,10.23
2023-03-14T05:25:13.404Z,10.18
2023-03-14T05:26:13.397Z,10.22
2023-03-14T05:27:13.382Z,10.17
2023-03-14T05:28:13.377Z,10.29
2023-03-14T05:29:13.417Z,10.25
2023-03-14T05:30:13.346Z,10.26
2023-03-14T05:31:13.449Z,10.25
2023-03-14T05:32:13.335Z,10.25
2023-03-14T05:33:13.318Z,10.40
2023-03-14T05:34:13.319Z,10.47
2023-03-14T05:35:13.348Z,10.47
2023-03-14T05:36:13.307Z,10.47
2023-03-14T05:37:13.276Z,10.48
2023-03-14T05:38:13.269Z,10.52
2023-03-14T05:39:13.256Z,10.56
2023-03-14T05:40:13.284Z,10.52
2023-03-14T05:41:13.237Z,10.41
2023-03-14T05:42:13.234Z,10.48
2023-03-14T05:43:13.258Z,10.45
2023-03-14T05:44:13.200Z,10.51
2023-03-14T05:45:13.213Z,10.47
2023-03-14T05:46:13.277Z,10.45
2023-03-14T05:47:13.190Z,10.51
2023-03-14T05:48:13.151Z,10.45
2023-03-14T05:49:13.159Z,10.40
2023-03-14T05:50:13.155Z,10.38
2023-03-14T05:51:13.121Z,10.32
2023-03-14T05:52:13.110Z,10.30
2023-03-14T05:53:13.160Z,10.30
2023-03-14T05:54:13.086Z,10.23
2023-03-14T05:55:13.137Z,10.26
2023-03-14T05:56:13.094Z,10.29
2023-03-14T05:57:13.046Z,10.23
2023-03-14T05:58:13.046Z,10.18
2023-03-14T05:59:13.053Z,10.25
2023-03-14T06:00:13.044Z,10.17
2023-03-14T06:01:13.007Z,10.20
2023-03-14T06:02:13.081Z,10.26
2023-03-14T06:03:13.073Z,10.23
2023-03-14T06:04:12.984Z,10.20
2023-03-14T06:05:12.959Z,10.15
2023-03-14T06:06:12.948Z,10.20
2023-03-14T06:07:12.995Z,10.12
2023-03-14T06:08:13.036Z,10.20
2023-03-14T06:09:12.924Z,10.15
2023-03-14T06:10:12.945Z,10.23
2023-03-14T06:11:12.883Z,10.32
2023-03-14T06:12:12.927Z,10.29
2023-03-14T06:13:12.899Z,10.32
2023-03-14T06:14:12.893Z,10.30
2023-03-14T06:15:12.840Z,10.33
2023-03-14T06:16:12.904Z,10.23
2023-03-14T06:17:12.890Z,10.27
2023-03-14T06:18:12.810Z,10.30
2023-03-14T06:19:12.911Z,10.38
2023-03-14T06:20:12.807Z,10.38
2023-03-14T06:21:12.780Z,10.38
2023-03-14T06:22:12.769Z,10.41
2023-03-14T06:23:12.771Z,10.38
2023-03-14T06:24:12.741Z,10.42
2023-03-14T06:25:12.771Z,10.44
2023-03-14T06:26:12.719Z,10.48
2023-03-14T06:27:12.704Z,10.45
2023-03-14T06:28:12.708Z,10.52
2023-03-14T06:29:12.713Z,10.52
2023-03-14T06:30:12.682Z,10.51
2023-03-14T06:31:12.720Z,10.63
2023-03-14T06:32:12.667Z,10.60
2023-03-14T06:33:12.652Z,10.52
2023-03-14T06:34:12.662Z,10.47
2023-03-14T06:35:12.640Z,10.51
2023-03-14T06:36:12.692Z,10.53
2023-03-14T06:37:12.631Z,10.56
2023-03-14T06:38:12.591Z,10.59
2023-03-14T06:39:12.587Z,10.53
2023-03-14T06:40:12.583Z,10.66
2023-03-14T06:41:12.593Z,10.73
2023-03-14T06:42:12.570Z,10.68
2023-03-14T06:43:12.585Z,10.74
2023-03-14T06:44:12.519Z,10.74
2023-03-14T06:45:12.523Z,10.76
2023-03-14T06:46:12.585Z,10.73
2023-03-14T06:47:12.643Z,10.81
2023-03-14T06:48:12.486Z,10.84
2023-03-14T06:49:12.477Z,10.91
2023-03-14T06:50:12.460Z,10.99
2023-03-14T06:51:12.487Z,10.94
2023-03-14T06:52:12.440Z,10.96
2023-03-14T06:53:12.514Z,10.97
2023-03-14T06:54:12.415Z,11.04
2023-03-14T06:55:12.394Z,11.09
2023-03-14T06:56:12.423Z,11.06
2023-03-14T06:57:12.375Z,11.07
2023-03-14T06:58:12.372Z,11.11
2023-03-14T06:59:12.388Z,11.11
2023-03-14T07:00:12.366Z,11.17
2023-03-14T07:01:12.392Z,11.17
2023-03-14T07:02:12.333Z,11.15
2023-03-14T07:03:13.445Z,11.18
2023-03-14T07:04:12.379Z,11.09
2023-03-14T07:05:12.337Z,11.17
2023-03-14T07:06:12.284Z,11.25
2023-03-14T07:07:12.283Z,11.18
2023-03-14T07:08:12.271Z,11.28
2023-03-14T07:09:12.272Z,11.18
2023-03-14T07:10:12.244Z,11.25
2023-03-14T07:11:12.263Z,11.29
2023-03-14T07:12:12.221Z,11.36
2023-03-14T07:13:12.198Z,11.27
2023-03-14T07:14:12.268Z,11.39
2023-03-14T07:16:13.226Z,11.28
2023-03-14T07:17:12.165Z,11.43
2023-03-14T07:18:12.136Z,11.25
2023-03-14T07:19:12.138Z,11.36
2023-03-14T07:20:12.146Z,11.33
2023-03-14T07:21:12.122Z,11.37
2023-03-14T07:22:12.106Z,11.37
2023-03-14T07:23:12.129Z,11.27
2023-03-14T07:24:12.100Z,11.29
2023-03-14T07:25:12.071Z,11.25
2023-03-14T07:26:12.063Z,11.25
2023-03-14T07:27:12.087Z,11.27
2023-03-14T07:28:12.067Z,11.35
2023-03-14T07:29:12.028Z,11.27
2023-03-14T07:30:12.013Z,11.42
2023-03-14T07:31:12.133Z,11.25
2023-03-14T07:32:12.002Z,11.39
2023-03-14T07:33:12.060Z,11.37
2023-03-14T07:34:12.007Z,11.42
2023-03-14T07:35:11.964Z,11.37
2023-03-14T07:36:12.086Z,11.46
2023-03-14T07:37:11.942Z,11.40
2023-03-14T07:38:11.934Z,11.40
2023-03-14T07:39:11.953Z,11.42
2023-03-14T07:40:11.914Z,11.35
2023-03-14T07:41:11.909Z,11.39
2023-03-14T07:42:11.880Z,11.42
2023-03-14T07:43:11.898Z,11.37
2023-03-14T07:44:11.883Z,11.36
2023-03-14T07:45:12.479Z,11.35
2023-03-14T07:46:11.875Z,11.39
2023-03-14T07:47:12.537Z,11.47
2023-03-14T07:48:11.886Z,11.35
2023-03-14T07:49:11.869Z,11.37
2023-03-14T07:50:11.833Z,11.42
2023-03-14T07:51:19.868Z,11.27
2023-03-14T07:52:11.780Z,11.37
2023-03-14T07:53:11.764Z,11.33
2023-03-14T07:54:11.795Z,11.36
2023-03-14T07:55:11.810Z,11.37
2023-03-14T07:56:11.738Z,11.44
2023-03-14T07:57:11.724Z,11.44
2023-03-14T07:58:11.731Z,11.49
2023-03-14T07:59:11.701Z,11.51
2023-03-14T08:00:12.426Z,11.51
2023-03-14T08:01:11.681Z,11.64
2023-03-14T08:02:11.675Z,11.62
2023-03-14T08:03:11.768Z,11.58
2023-03-14T08:04:11.710Z,11.58
2023-03-14T08:05:11.650Z,11.57
2023-03-14T08:06:11.619Z,11.58
2023-03-14T08:07:11.620Z,11.57
2023-03-14T08:08:11.643Z,11.65
2023-03-14T08:09:11.585Z,11.73
2023-03-14T08:10:11.598Z,11.75
2023-03-14T08:11:11.588Z,11.80
2023-03-14T08:12:11.559Z,11.82
2023-03-14T08:13:11.550Z,11.91
2023-03-14T08:14:11.552Z,11.86
2023-03-14T08:15:11.517Z,11.83
2023-03-14T08:16:11.576Z,11.83
2023-03-14T08:17:11.494Z,11.83
2023-03-14T08:18:11.489Z,11.80
2023-03-14T08:19:11.494Z,11.91
2023-03-14T08:20:11.478Z,12.01
2023-03-14T08:21:11.537Z,12.01
2023-03-14T08:22:11.446Z,12.04
2023-03-14T08:23:11.456Z,12.13
2023-03-14T08:24:11.423Z,12.14
2023-03-14T08:25:11.414Z,12.05
2023-03-14T08:26:11.430Z,12.01
2023-03-14T08:27:11.432Z,12.02
2023-03-14T08:28:11.379Z,12.14
2023-03-14T08:29:11.360Z,12.09
2023-03-14T08:30:11.364Z,12.04
2023-03-14T08:31:11.446Z,12.04
2023-03-14T08:32:11.396Z,12.07
2023-03-14T08:33:11.317Z,11.96
2023-03-14T08:34:11.303Z,12.10
2023-03-14T08:35:11.310Z,11.99
2023-03-14T08:36:11.316Z,12.05
2023-03-14T08:37:25.390Z,12.02
2023-03-14T08:38:12.264Z,11.99
2023-03-14T08:39:11.407Z,12.01
2023-03-14T08:40:11.244Z,12.04
2023-03-14T08:41:11.249Z,12.05
2023-03-14T08:42:11.243Z,11.94
2023-03-14T08:43:11.339Z,11.96
2023-03-14T08:44:11.255Z,11.82
2023-03-14T08:45:11.180Z,11.73
2023-03-14T08:46:11.176Z,11.70
2023-03-14T08:47:11.357Z,11.76
2023-03-14T08:48:11.178Z,11.76
2023-03-14T08:49:11.140Z,11.85
2023-03-14T08:50:13.852Z,11.73
2023-03-14T08:51:11.139Z,11.69
2023-03-14T08:52:11.112Z,11.73
2023-03-14T08:53:11.213Z,11.85
2023-03-14T08:54:11.109Z,11.82
2023-03-14T08:55:11.099Z,12.01
2023-03-14T08:56:11.111Z,11.80
2023-03-14T08:57:11.061Z,11.85
2023-03-14T08:58:11.062Z,11.95
2023-03-14T08:59:11.071Z,12.04
2023-03-14T09:00:11.011Z,12.10
2023-03-14T09:01:11.088Z,12.04
2023-03-14T09:02:13.339Z,12.02
2023-03-14T09:03:11.078Z,12.13
2023-03-14T09:04:11.045Z,12.12
2023-03-14T09:05:10.990Z,12.10
2023-03-14T09:06:10.956Z,12.10
2023-03-14T09:07:10.943Z,12.07
2023-03-14T09:08:10.960Z,12.14
2023-03-14T09:09:10.930Z,12.23
2023-03-14T09:10:10.915Z,12.07
2023-03-14T09:11:10.926Z,12.07
2023-03-14T09:12:10.908Z,12.12
2023-03-14T09:13:10.871Z,12.23
2023-03-14T09:14:10.862Z,12.29
2023-03-14T09:15:11.008Z,12.19
2023-03-14T09:16:10.954Z,12.23
2023-03-14T09:17:10.826Z,12.35
2023-03-14T09:18:10.812Z,12.62
2023-03-14T09:19:10.804Z,12.62
2023-03-14T09:20:10.794Z,12.75
2023-03-14T09:21:10.803Z,12.86
2023-03-14T09:22:10.773Z,12.95
2023-03-14T09:23:10.758Z,13.00
2023-03-14T09:24:10.748Z,13.00
2023-03-14T09:25:10.751Z,12.93
2023-03-14T09:26:10.752Z,12.83
2023-03-14T09:27:10.723Z,12.78
2023-03-14T09:28:10.751Z,12.82
2023-03-14T09:29:10.694Z,12.75
2023-03-14T09:30:10.705Z,12.70
2023-03-14T09:31:10.687Z,12.77
2023-03-14T09:32:10.668Z,12.82
2023-03-14T09:33:10.714Z,12.79
2023-03-14T09:34:10.646Z,12.87
2023-03-14T09:35:10.651Z,12.97
2023-03-14T09:36:10.641Z,13.10
2023-03-14T09:37:10.604Z,13.23
2023-03-14T09:38:10.604Z,13.36
2023-03-14T09:39:10.580Z,13.51
2023-03-14T09:40:10.564Z,13.55
2023-03-14T09:41:10.577Z,13.62
2023-03-14T09:42:10.544Z,13.59
2023-03-14T09:43:10.576Z,13.60
2023-03-14T09:44:10.541Z,13.45
2023-03-14T09:45:10.515Z,13.39
2023-03-14T09:46:10.553Z,13.30
2023-03-14T09:47:10.514Z,13.26
2023-03-14T09:48:10.476Z,13.22
2023-03-14T09:49:10.463Z,13.30
2023-03-14T09:50:10.474Z,13.36
2023-03-14T09:51:10.480Z,13.19
2023-03-14T09:52:10.446Z,13.30
2023-03-14T09:53:10.418Z,13.39
2023-03-14T09:54:10.405Z,13.44
2023-03-14T09:55:10.424Z,13.39
2023-03-14T09:56:10.389Z,13.46
2023-03-14T09:57:10.369Z,13.67
2023-03-14T09:58:10.396Z,13.66
2023-03-14T09:59:10.347Z,13.70
2023-03-14T10:00:10.350Z,13.63
2023-03-14T10:01:10.438Z,13.52
2023-03-14T10:02:10.355Z,13.46
2023-03-14T10:03:10.339Z,13.29
2023-03-14T10:04:10.341Z,13.26
2023-03-14T10:05:10.293Z,13.25
2023-03-14T10:06:10.307Z,13.11
2023-03-14T10:07:10.284Z,13.17
2023-03-14T10:08:10.239Z,13.19
2023-03-14T10:09:10.394Z,13.25
2023-03-14T10:10:10.231Z,13.32
2023-03-14T10:11:10.212Z,13.19
2023-03-14T10:12:10.266Z,13.28
2023-03-14T10:13:10.216Z,13.32
2023-03-14T10:14:10.190Z,13.32
2023-03-14T10:15:10.191Z,13.26
2023-03-14T10:16:10.188Z,13.26
2023-03-14T10:17:10.311Z,13.25
2023-03-14T10:18:10.155Z,13.25
2023-03-14T10:19:10.138Z,13.30
2023-03-14T10:20:10.112Z,13.49
2023-03-14T10:21:10.101Z,13.55
2023-03-14T10:22:10.086Z,13.59
2023-03-14T10:23:10.112Z,13.48
2023-03-14T10:24:10.064Z,13.41
2023-03-14T10:25:10.095Z,13.48
2023-03-14T10:26:10.059Z,13.54
2023-03-14T10:27:10.031Z,13.45
2023-03-14T10:28:10.025Z,13.39
2023-03-14T10:29:10.038Z,13.41
2023-03-14T10:30:10.015Z,13.28
2023-03-14T10:31:10.172Z,13.28
2023-03-14T10:32:09.985Z,13.44
2023-03-14T10:33:09.966Z,13.41
2023-03-14T10:34:09.960Z,13.46
2023-03-14T10:35:10.000Z,13.44
2023-03-14T10:36:11.923Z,13.48
2023-03-14T10:37:09.925Z,13.54
2023-03-14T10:38:09.911Z,13.36
2023-03-14T10:39:09.898Z,13.52
2023-03-14T10:40:09.898Z,13.51
2023-03-14T10:41:09.904Z,13.55
2023-03-14T10:42:09.869Z,13.57
2023-03-14T10:43:09.881Z,13.70
2023-03-14T10:44:09.869Z,13.97
2023-03-14T10:45:09.852Z,14.00
2023-03-14T10:46:09.876Z,14.18
2023-03-14T10:47:09.820Z,14.32
2023-03-14T10:48:09.801Z,14.10
2023-03-14T10:49:09.798Z,14.12
2023-03-14T10:50:09.867Z,14.03
2023-03-14T10:51:09.871Z,13.85
2023-03-14T10:52:09.779Z,13.64
2023-03-14T10:53:09.750Z,13.46
2023-03-14T10:54:09.742Z,13.26
2023-03-14T10:55:09.805Z,13.14
2023-03-14T10:56:09.745Z,12.72
2023-03-14T10:57:09.716Z,12.68
2023-03-14T10:58:09.698Z,12.65
2023-03-14T10:59:09.682Z,12.64
2023-03-14T11:00:09.702Z,12.56
2023-03-14T11:01:09.743Z,12.59
2023-03-14T11:02:09.653Z,12.71
2023-03-14T11:03:09.648Z,12.72
2023-03-14T11:04:09.633Z,12.90
2023-03-14T11:05:09.612Z,13.11
2023-03-14T11:06:09.613Z,13.14
2023-03-14T11:07:09.651Z,13.45
2023-03-14T11:08:09.614Z,13.81
2023-03-14T11:09:09.595Z,14.17
2023-03-14T11:10:09.560Z,14.28
2023-03-14T11:11:09.548Z,14.72
2023-03-14T11:12:09.536Z,14.83
2023-03-14T11:13:09.564Z,14.99
2023-03-14T11:14:09.554Z,14.65
2023-03-14T11:15:09.509Z,14.29
2023-03-14T11:16:09.666Z,14.06
2023-03-14T11:17:09.497Z,14.12
2023-03-14T11:18:09.487Z,14.20
2023-03-14T11:19:09.515Z,14.36
2023-03-14T11:20:09.446Z,14.43
2023-03-14T11:21:09.467Z,14.60
2023-03-14T11:22:09.427Z,14.51
2023-03-14T11:23:10.385Z,14.42
2023-03-14T11:24:09.398Z,14.37
2023-03-14T11:25:09.399Z,14.28
2023-03-14T11:26:09.403Z,14.29
2023-03-14T11:27:09.376Z,14.42
2023-03-14T11:28:09.357Z,14.51
2023-03-14T11:29:09.412Z,14.51
2023-03-14T11:30:09.400Z,14.39
2023-03-14T11:31:09.388Z,14.43
2023-03-14T11:32:09.315Z,14.27
2023-03-14T11:33:09.338Z,14.25
2023-03-14T11:34:09.312Z,14.12
2023-03-14T11:35:09.368Z,14.09
2023-03-14T11:36:10.167Z,14.04
2023-03-14T11:37:09.293Z,14.09
2023-03-14T11:38:09.275Z,14.21
2023-03-14T11:39:09.302Z,14.09
2023-03-14T11:40:09.226Z,14.02
2023-03-14T11:41:09.268Z,14.04
2023-03-14T11:42:09.217Z,14.12
2023-03-14T11:43:09.202Z,14.09
2023-03-14T11:44:09.190Z,14.10
2023-03-14T11:45:09.193Z,14.12
2023-03-14T11:46:09.210Z,14.06
2023-03-14T11:47:09.820Z,14.12
2023-03-14T11:48:09.140Z,14.15
2023-03-14T11:49:09.130Z,14.24
2023-03-14T11:50:09.138Z,14.14
2023-03-14T11:51:09.198Z,14.09
2023-03-14T11:52:09.123Z,14.10
2023-03-14T11:53:09.107Z,14.02
2023-03-14T11:54:09.088Z,14.03
2023-03-14T11:55:09.078Z,14.12
2023-03-14T11:56:09.041Z,14.06
2023-03-14T11:57:09.037Z,14.10
2023-03-14T11:58:09.053Z,14.14
2023-03-14T11:59:09.034Z,14.14
2023-03-14T12:00:09.018Z,13.96
2023-03-14T12:01:09.038Z,13.75
2023-03-14T12:02:09.060Z,13.60
2023-03-14T12:03:08.962Z,13.71
2023-03-14T12:04:09.040Z,13.73
2023-03-14T12:05:08.982Z,13.88
2023-03-14T12:06:08.934Z,13.91
2023-03-14T12:07:08.922Z,13.62
2023-03-14T12:08:09.093Z,13.51
2023-03-14T12:09:08.924Z,13.25
2023-03-14T12:10:08.891Z,12.96
2023-03-14T12:11:08.936Z,12.87
2023-03-14T12:12:08.859Z,12.86
2023-03-14T12:13:08.851Z,12.60
2023-03-14T12:14:08.842Z,12.52
2023-03-14T12:15:08.863Z,12.49
2023-03-14T12:16:08.936Z,12.29
2023-03-14T12:17:08.838Z,12.23
2023-03-14T12:18:08.833Z,12.01
2023-03-14T12:19:08.787Z,11.96
2023-03-14T12:20:08.770Z,11.91
2023-03-14T12:21:08.818Z,11.85
2023-03-14T12:22:08.768Z,11.79
2023-03-14T12:23:08.734Z,11.67
2023-03-14T12:24:08.732Z,11.62
2023-03-14T12:25:08.751Z,11.46
2023-03-14T12:26:08.705Z,11.40
2023-03-14T12:27:08.758Z,11.37
2023-03-14T12:28:08.703Z,11.18
2023-03-14T12:29:08.683Z,10.91
2023-03-14T12:30:08.657Z,10.42
2023-03-14T12:31:08.732Z,10.30
2023-03-14T12:32:08.639Z,10.14
2023-03-14T12:33:08.649Z,10.05
2023-03-14T12:34:08.615Z,9.97
2023-03-14T12:35:08.629Z,9.90
2023-03-14T12:36:08.648Z,9.86
2023-03-14T12:37:08.582Z,9.86
2023-03-14T12:38:08.600Z,9.75
2023-03-14T12:39:08.575Z,9.65
2023-03-14T12:40:08.569Z,9.57
2023-03-14T12:41:08.547Z,9.54
2023-03-14T12:42:08.564Z,9.53
2023-03-14T12:43:08.540Z,9.56
2023-03-14T12:44:08.499Z,9.50
2023-03-14T12:45:08.509Z,9.53
2023-03-14T12:46:08.577Z,9.54
2023-03-14T12:47:08.497Z,9.61
2023-03-14T12:48:08.471Z,9.65
2023-03-14T12:49:08.517Z,9.60
2023-03-14T12:50:08.441Z,9.66
2023-03-14T12:51:08.426Z,9.60
2023-03-14T12:52:08.416Z,9.64
2023-03-14T12:53:08.436Z,9.61
2023-03-14T12:54:08.424Z,9.66